createdAt,value
2022-10-15T00:00:32.619Z,96.04
2022-10-15T00:01:32.620Z,96.04
2022-10-15T00:02:32.606Z,96.04
2022-10-15T00:03:32.606Z,96.04
2022-10-15T00:04:32.620Z,96.04
2022-10-15T00:05:32.620Z,96.04
2022-10-15T00:06:32.607Z,96.04
2022-10-15T00:07:32.608Z,96.04
2022-10-15T00:08:32.620Z,96.03
2022-10-15T00:09:32.621Z,96.04
2022-10-15T00:10:32.608Z,96.03
2022-10-15T00:11:32.622Z,96.03
2022-10-15T00:12:32.623Z,96.03
2022-10-15T00:13:32.622Z,96.04
2022-10-15T00:14:32.610Z,96.03
2022-10-15T00:15:32.624Z,96.03
2022-10-15T00:16:32.624Z,96.03
2022-10-15T00:17:32.624Z,96.03
2022-10-15T00:18:32.612Z,96.03
2022-10-15T00:19:32.688Z,96.03
2022-10-15T00:20:32.625Z,96.03
2022-10-15T00:21:32.612Z,96.03
2022-10-15T00:22:32.612Z,96.03
2022-10-15T00:23:32.626Z,96.03
2022-10-15T00:24:32.627Z,96.03
2022-10-15T00:25:32.613Z,96.03
2022-10-15T00:26:32.628Z,96.03
2022-10-15T00:27:32.627Z,96.03
2022-10-15T00:28:32.627Z,96.03
2022-10-15T00:29:32.615Z,96.02
2022-10-15T00:30:32.629Z,96.02
2022-10-15T00:31:32.629Z,96.02
2022-10-15T00:32:32.629Z,96.02
2022-10-15T00:33:32.616Z,96.02
2022-10-15T00:34:32.629Z,96.02
2022-10-15T00:35:32.630Z,96.02
2022-10-15T00:36:32.630Z,96.02
2022-10-15T00:37:32.617Z,96.02
2022-10-15T00:38:32.631Z,96.02
2022-10-15T00:39:32.632Z,96.01
2022-10-15T00:40:32.618Z,96.01
2022-10-15T00:41:32.619Z,96.02
2022-10-15T00:42:32.633Z,96.01
2022-10-15T00:43:32.632Z,96.01
2022-10-15T00:44:32.620Z,96.01
2022-10-15T00:45:32.674Z,96.02
2022-10-15T00:46:32.634Z,96.01
2022-10-15T00:47:32.633Z,96.01
2022-10-15T00:48:32.621Z,96.01
2022-10-15T00:49:32.635Z,96.01
2022-10-15T00:50:32.634Z,96.01
2022-10-15T00:51:32.636Z,96.01
2022-10-15T00:52:32.622Z,96.01
2022-10-15T00:53:32.636Z,96.01
2022-10-15T00:54:32.637Z,96.01
2022-10-15T00:55:32.637Z,96.02
2022-10-15T00:56:32.624Z,96.01
2022-10-15T00:57:32.663Z,96.01
2022-10-15T00:58:32.637Z,96.01
2022-10-15T00:59:32.625Z,96.01
2022-10-15T01:00:32.625Z,96.01
2022-10-15T01:01:32.639Z,96
2022-10-15T01:02:32.638Z,96
2022-10-15T01:03:32.626Z,96
2022-10-15T01:04:32.640Z,96
2022-10-15T01:05:32.639Z,96
2022-10-15T01:06:32.641Z,96
2022-10-15T01:07:32.627Z,96
2022-10-15T01:08:32.641Z,96
2022-10-15T01:09:32.668Z,95.99
2022-10-15T01:10:32.641Z,95.99
2022-10-15T01:11:32.629Z,95.99
2022-10-15T01:12:32.643Z,95.99
2022-10-15T01:13:32.643Z,96
2022-10-15T01:14:32.643Z,96
2022-10-15T01:15:32.630Z,95.99
2022-10-15T01:16:32.643Z,95.99
2022-10-15T01:17:32.644Z,95.99
2022-10-15T01:19:32.631Z,95.99
2022-10-15T01:20:32.645Z,95.98
2022-10-15T01:21:32.645Z,95.98
2022-10-15T01:22:32.632Z,95.98
2022-10-15T01:23:32.646Z,95.98
2022-10-15T01:24:32.647Z,95.98
2022-10-15T01:25:32.646Z,95.98
2022-10-15T01:26:32.634Z,95.98
2022-10-15T01:27:32.647Z,95.98
2022-10-15T01:28:32.648Z,95.98
2022-10-15T01:29:32.647Z,95.98
2022-10-15T01:30:32.635Z,95.98
2022-10-15T01:31:32.649Z,95.97
2022-10-15T01:32:32.648Z,95.97
2022-10-15T01:33:32.660Z,95.96
2022-10-15T01:34:32.636Z,95.96
2022-10-15T01:35:32.650Z,95.96
2022-10-15T01:36:32.650Z,95.96
2022-10-15T01:37:32.637Z,95.96
2022-10-15T01:38:32.638Z,95.96
2022-10-15T01:39:32.652Z,95.96
2022-10-15T01:40:32.652Z,95.96
2022-10-15T01:41:32.638Z,95.96
2022-10-15T01:42:32.653Z,95.96
2022-10-15T01:43:32.652Z,95.96
2022-10-15T01:44:32.652Z,95.96
2022-10-15T01:45:32.652Z,95.96
2022-10-15T01:46:32.654Z,95.96
2022-10-15T01:47:32.654Z,95.96
2022-10-15T01:48:32.654Z,95.96
2022-10-15T01:49:32.641Z,95.95
2022-10-15T01:50:32.654Z,95.96
2022-10-15T01:51:32.655Z,95.95
2022-10-15T01:52:32.642Z,95.95
2022-10-15T01:53:32.643Z,95.95
2022-10-15T01:54:32.657Z,95.95
2022-10-15T01:55:32.658Z,95.95
2022-10-15T01:56:32.643Z,95.96
2022-10-15T01:57:32.722Z,95.95
2022-10-15T01:58:32.658Z,95.95
2022-10-15T01:59:32.658Z,95.95
2022-10-15T02:00:32.645Z,95.95
2022-10-15T02:01:32.659Z,95.95
2022-10-15T02:02:32.659Z,95.95
2022-10-15T02:03:32.659Z,95.95
2022-10-15T02:04:32.646Z,95.95
2022-10-15T02:05:32.660Z,95.95
2022-10-15T02:06:32.659Z,95.95
2022-10-15T02:07:32.660Z,95.95
2022-10-15T02:08:32.648Z,95.95
2022-10-15T02:09:32.701Z,95.95
2022-10-15T02:10:32.661Z,95.95
2022-10-15T02:11:32.648Z,95.95
2022-10-15T02:12:32.649Z,95.95
2022-10-15T02:13:32.663Z,95.95
2022-10-15T02:14:32.663Z,95.95
2022-10-15T02:15:32.650Z,95.95
2022-10-15T02:16:32.713Z,95.94
2022-10-15T02:17:32.663Z,95.94
2022-10-15T02:18:32.663Z,95.94
2022-10-15T02:19:32.651Z,95.94
2022-10-15T02:20:32.665Z,95.94
2022-10-15T02:21:32.665Z,95.94
2022-10-15T02:22:32.665Z,95.94
2022-10-15T02:23:32.652Z,95.94
2022-10-15T02:24:32.667Z,95.94
2022-10-15T02:25:32.667Z,95.94
2022-10-15T02:26:32.667Z,95.94
2022-10-15T02:27:32.654Z,95.94
2022-10-15T02:28:32.709Z,95.94
2022-10-15T02:29:32.667Z,95.94
2022-10-15T02:30:32.655Z,95.94
2022-10-15T02:31:32.655Z,95.94
2022-10-15T02:32:32.669Z,95.93
2022-10-15T02:33:32.668Z,95.93
2022-10-15T02:34:32.656Z,95.94
2022-10-15T02:35:32.670Z,95.93
2022-10-15T02:36:32.670Z,95.94
2022-10-15T02:37:32.671Z,95.93
2022-10-15T02:38:32.657Z,95.93
2022-10-15T02:39:32.671Z,95.94
2022-10-15T02:40:32.716Z,95.93
2022-10-15T02:41:32.671Z,95.93
2022-10-15T02:42:32.659Z,95.93
2022-10-15T02:43:32.673Z,95.93
2022-10-15T02:44:32.672Z,95.93
2022-10-15T02:45:32.673Z,95.93
2022-10-15T02:46:32.661Z,95.93
2022-10-15T02:47:32.674Z,95.93
2022-10-15T02:48:32.674Z,95.93
2022-10-15T02:49:32.661Z,95.93
2022-10-15T02:50:32.662Z,95.93
2022-10-15T02:51:32.675Z,95.93
2022-10-15T02:52:32.676Z,95.93
2022-10-15T02:53:32.662Z,95.92
2022-10-15T02:54:32.677Z,95.93
2022-10-15T02:55:32.676Z,95.93
2022-10-15T02:56:32.676Z,95.92
2022-10-15T02:57:32.676Z,95.92
2022-10-15T02:58:32.678Z,95.93
2022-10-15T02:59:32.678Z,95.93
2022-10-15T03:00:32.677Z,95.93
2022-10-15T03:01:32.665Z,95.93
2022-10-15T03:02:32.679Z,95.93
2022-10-15T03:03:32.679Z,95.93
2022-10-15T03:04:32.666Z,95.93
2022-10-15T03:05:32.666Z,95.93
2022-10-15T03:06:32.680Z,95.93
2022-10-15T03:07:32.680Z,95.92
2022-10-15T03:08:32.667Z,95.92
2022-10-15T03:09:32.668Z,95.92
2022-10-15T03:10:32.682Z,95.92
2022-10-15T03:11:32.682Z,95.93
2022-10-15T03:12:32.669Z,95.92
2022-10-15T03:13:32.683Z,95.92
2022-10-15T03:14:32.683Z,95.92
2022-10-15T03:15:32.682Z,95.92
2022-10-15T03:16:32.671Z,95.92
2022-10-15T03:17:32.684Z,95.92
2022-10-15T03:18:32.683Z,95.92
2022-10-15T03:19:32.684Z,95.92
2022-10-15T03:20:32.671Z,95.92
2022-10-15T03:21:32.733Z,95.92
2022-10-15T03:22:32.686Z,95.92
2022-10-15T03:23:32.672Z,95.92
2022-10-15T03:24:32.673Z,95.92
2022-10-15T03:25:32.687Z,95.92
2022-10-15T03:26:32.687Z,95.93
2022-10-15T03:27:32.674Z,95.92
2022-10-15T03:28:32.688Z,95.92
2022-10-15T03:29:32.688Z,95.93
2022-10-15T03:30:32.687Z,95.93
2022-10-15T03:31:32.675Z,95.92
2022-10-15T03:32:32.689Z,95.93
2022-10-15T03:33:32.754Z,95.93
2022-10-15T03:34:32.690Z,95.93
2022-10-15T03:35:32.676Z,95.93
2022-10-15T03:36:32.690Z,95.93
2022-10-15T03:37:32.690Z,95.93
2022-10-15T03:38:32.690Z,95.92
2022-10-15T03:39:32.678Z,95.94
2022-10-15T03:40:32.692Z,95.94
2022-10-15T03:41:32.692Z,95.94
2022-10-15T03:42:32.679Z,95.94
2022-10-15T03:43:32.679Z,95.94
2022-10-15T03:44:32.693Z,95.94
2022-10-15T03:45:32.692Z,95.94
2022-10-15T03:46:32.680Z,95.94
2022-10-15T03:47:32.694Z,95.95
2022-10-15T03:48:32.693Z,95.94
2022-10-15T03:49:32.694Z,95.94
2022-10-15T03:50:32.681Z,95.95
2022-10-15T03:51:32.694Z,95.94
2022-10-15T03:52:32.748Z,95.95
2022-10-15T03:53:32.696Z,95.95
2022-10-15T03:54:32.684Z,95.95
2022-10-15T03:55:32.697Z,95.95
2022-10-15T03:56:32.697Z,95.95
2022-10-15T03:57:32.697Z,95.95
2022-10-15T03:58:32.685Z,95.95
2022-10-15T03:59:32.698Z,95.95
2022-10-15T04:00:32.698Z,95.95
2022-10-15T04:01:32.685Z,95.95
2022-10-15T04:02:32.686Z,95.95
2022-10-15T04:03:32.699Z,95.95
2022-10-15T04:04:32.725Z,95.95
2022-10-15T04:05:32.686Z,95.95
2022-10-15T04:06:32.700Z,95.95
2022-10-15T04:07:32.701Z,95.95
2022-10-15T04:08:32.700Z,95.95
2022-10-15T04:09:32.688Z,95.95
2022-10-15T04:10:32.702Z,95.95
2022-10-15T04:11:32.702Z,95.96
2022-10-15T04:12:32.701Z,95.96
2022-10-15T04:13:32.689Z,95.96
2022-10-15T04:14:32.703Z,95.96
2022-10-15T04:15:32.702Z,95.96
2022-10-15T04:16:32.690Z,95.96
2022-10-15T04:17:32.690Z,95.96
2022-10-15T04:18:32.704Z,95.96
2022-10-15T04:19:32.704Z,95.96
2022-10-15T04:20:32.691Z,95.96
2022-10-15T04:21:32.692Z,95.96
2022-10-15T04:22:32.705Z,95.96
2022-10-15T04:23:32.705Z,95.96
2022-10-15T04:24:32.693Z,95.97
2022-10-15T04:25:32.706Z,95.96
2022-10-15T04:26:32.706Z,95.97
2022-10-15T04:27:32.706Z,95.97
2022-10-15T04:28:32.707Z,95.97
2022-10-15T04:29:32.707Z,95.97
2022-10-15T04:30:32.707Z,95.97
2022-10-15T04:31:32.708Z,95.98
2022-10-15T04:32:32.695Z,95.97
2022-10-15T04:33:32.709Z,95.97
2022-10-15T04:34:32.710Z,95.97
2022-10-15T04:35:32.696Z,95.98
2022-10-15T04:36:32.697Z,95.98
2022-10-15T04:37:32.711Z,95.98
2022-10-15T04:38:32.710Z,95.98
2022-10-15T04:39:32.698Z,95.98
2022-10-15T04:40:32.776Z,95.98
2022-10-15T04:41:32.711Z,95.98
2022-10-15T04:42:32.712Z,95.98
2022-10-15T04:43:32.699Z,95.98
2022-10-15T04:44:32.713Z,95.98
2022-10-15T04:45:32.713Z,95.98
2022-10-15T04:46:32.713Z,95.98
2022-10-15T04:47:32.701Z,95.99
2022-10-15T04:48:32.714Z,95.99
2022-10-15T04:49:32.714Z,95.98
2022-10-15T04:50:32.714Z,95.98
2022-10-15T04:51:32.702Z,95.98
2022-10-15T04:52:32.765Z,95.98
2022-10-15T04:53:32.716Z,95.98
2022-10-15T04:54:32.703Z,95.99
2022-10-15T04:55:32.703Z,95.98
2022-10-15T04:56:32.717Z,95.98
2022-10-15T04:57:32.716Z,95.98
2022-10-15T04:58:32.704Z,95.98
2022-10-15T04:59:32.717Z,95.98
2022-10-15T05:00:32.718Z,95.98
2022-10-15T05:01:32.719Z,95.99
2022-10-15T05:02:32.705Z,95.98
2022-10-15T05:03:32.719Z,95.99
2022-10-15T05:04:32.763Z,95.99
2022-10-15T05:05:32.720Z,95.99
2022-10-15T05:06:32.707Z,95.99
2022-10-15T05:07:32.721Z,95.99
2022-10-15T05:08:32.721Z,95.99
2022-10-15T05:09:32.721Z,95.99
2022-10-15T05:10:32.708Z,95.99
2022-10-15T05:11:32.722Z,95.99
2022-10-15T05:12:32.722Z,95.99
2022-10-15T05:13:32.709Z,95.99
2022-10-15T05:14:32.709Z,95.99
2022-10-15T05:15:32.723Z,95.99
2022-10-15T05:16:32.724Z,95.99
2022-10-15T05:17:32.710Z,95.99
2022-10-15T05:18:32.723Z,96
2022-10-15T05:19:32.725Z,96
2022-10-15T05:20:32.724Z,96
2022-10-15T05:21:32.712Z,96
2022-10-15T05:22:32.726Z,96
2022-10-15T05:23:32.727Z,96
2022-10-15T05:24:32.726Z,96
2022-10-15T05:25:32.714Z,96
2022-10-15T05:26:32.727Z,96.01
2022-10-15T05:27:32.727Z,96.01
2022-10-15T05:28:32.714Z,96.01
2022-10-15T05:29:32.714Z,96.01
2022-10-15T05:30:32.728Z,96.02
2022-10-15T05:31:32.729Z,96.02
2022-10-15T05:32:32.715Z,96.01
2022-10-15T05:33:32.717Z,96.01
2022-10-15T05:34:32.729Z,96.02
2022-10-15T05:35:32.794Z,96.01
2022-10-15T05:36:32.717Z,96.02
2022-10-15T05:37:32.731Z,96.02
2022-10-15T05:38:32.731Z,96.02
2022-10-15T05:39:32.731Z,96.02
2022-10-15T05:40:32.718Z,96.03
2022-10-15T05:41:32.732Z,96.03
2022-10-15T05:42:32.732Z,96.03
2022-10-15T05:43:32.733Z,96.03
2022-10-15T05:44:32.719Z,96.03
2022-10-15T05:45:32.733Z,96.04
2022-10-15T05:46:32.734Z,96.03
2022-10-15T05:47:32.744Z,96.04
2022-10-15T05:48:32.721Z,96.04
2022-10-15T05:49:32.735Z,96.04
2022-10-15T05:50:32.734Z,96.04
2022-10-15T05:51:32.722Z,96.04
2022-10-15T05:52:32.722Z,96.04
2022-10-15T05:53:32.736Z,96.04
2022-10-15T05:54:32.735Z,96.04
2022-10-15T05:55:32.723Z,96.04
2022-10-15T05:56:32.736Z,96.04
2022-10-15T05:57:32.737Z,96.04
2022-10-15T05:58:32.737Z,96.04
2022-10-15T05:59:32.724Z,96.05
2022-10-15T06:00:32.738Z,96.05
2022-10-15T06:01:32.739Z,96.05
2022-10-15T06:02:32.739Z,96.05
2022-10-15T06:03:32.726Z,96.05
2022-10-15T06:04:32.739Z,96.04
2022-10-15T06:05:32.740Z,96.05
2022-10-15T06:06:32.727Z,96.05
2022-10-15T06:07:32.728Z,96.05
2022-10-15T06:08:32.741Z,96.05
2022-10-15T06:09:32.741Z,96.05
2022-10-15T06:10:32.728Z,96.05
2022-10-15T06:11:32.806Z,96.06
2022-10-15T06:12:32.742Z,96.05
2022-10-15T06:13:32.743Z,96.06
2022-10-15T06:14:32.729Z,96.06
2022-10-15T06:15:32.743Z,96.06
2022-10-15T06:16:32.744Z,96.06
2022-10-15T06:17:32.744Z,96.06
2022-10-15T06:18:32.732Z,96.06
2022-10-15T06:19:32.745Z,96.07
2022-10-15T06:20:32.745Z,96.07
2022-10-15T06:21:32.744Z,96.08
2022-10-15T06:22:32.732Z,96.08
2022-10-15T06:23:32.794Z,96.08
2022-10-15T06:24:32.745Z,96.09
2022-10-15T06:25:32.733Z,96.08
2022-10-15T06:26:32.733Z,96.09
2022-10-15T06:27:32.747Z,96.09
2022-10-15T06:28:32.749Z,96.09
2022-10-15T06:29:32.734Z,96.09
2022-10-15T06:30:32.749Z,96.09
2022-10-15T06:31:32.749Z,96.09
2022-10-15T06:32:32.748Z,96.09
2022-10-15T06:33:32.736Z,96.09
2022-10-15T06:34:32.750Z,96.1
2022-10-15T06:35:32.776Z,96.1
2022-10-15T06:36:32.749Z,96.09
2022-10-15T06:37:32.737Z,96.1
2022-10-15T06:38:32.751Z,96.1
2022-10-15T06:39:32.750Z,96.1
2022-10-15T06:40:32.752Z,96.11
2022-10-15T06:41:32.738Z,96.11
2022-10-15T06:42:32.752Z,96.11
2022-10-15T06:43:32.752Z,96.11
2022-10-15T06:44:32.739Z,96.11
2022-10-15T06:45:32.740Z,96.11
2022-10-15T06:46:32.754Z,96.12
2022-10-15T06:47:32.753Z,96.11
2022-10-15T06:48:32.741Z,96.12
2022-10-15T06:49:32.755Z,96.13
2022-10-15T06:50:32.755Z,96.12
2022-10-15T06:51:32.754Z,96.13
2022-10-15T06:52:32.742Z,96.12
2022-10-15T06:53:32.756Z,96.13
2022-10-15T06:54:32.756Z,96.13
2022-10-15T06:55:32.757Z,96.13
2022-10-15T06:56:32.743Z,96.13
2022-10-15T06:57:32.758Z,96.13
2022-10-15T06:58:32.759Z,96.12
2022-10-15T06:59:32.758Z,96.14
2022-10-15T07:00:32.745Z,96.13
2022-10-15T07:01:32.759Z,96.14
2022-10-15T07:02:32.759Z,96.14
2022-10-15T07:03:32.746Z,96.14
2022-10-15T07:04:32.746Z,96.14
2022-10-15T07:05:32.760Z,96.14
2022-10-15T07:06:32.761Z,96.15
2022-10-15T07:07:32.747Z,96.15
2022-10-15T07:08:32.761Z,96.15
2022-10-15T07:09:32.760Z,96.16
2022-10-15T07:10:32.762Z,96.16
2022-10-15T07:11:32.748Z,96.16
2022-10-15T07:12:32.763Z,96.16
2022-10-15T07:13:32.762Z,96.16
2022-10-15T07:14:32.762Z,96.17
2022-10-15T07:15:32.751Z,96.17
2022-10-15T07:16:32.764Z,96.17
2022-10-15T07:17:32.764Z,96.17
2022-10-15T07:18:32.751Z,96.17
2022-10-15T07:19:32.752Z,96.17
2022-10-15T07:20:32.765Z,96.17
2022-10-15T07:21:32.765Z,96.17
2022-10-15T07:22:32.752Z,96.17
2022-10-15T07:23:32.753Z,96.17
2022-10-15T07:24:32.767Z,96.17
2022-10-15T07:25:32.767Z,96.17
2022-10-15T07:26:32.754Z,96.17
2022-10-15T07:27:32.768Z,96.18
2022-10-15T07:28:32.768Z,96.17
2022-10-15T07:29:32.767Z,96.18
2022-10-15T07:30:32.755Z,96.18
2022-10-15T07:31:32.769Z,96.18
2022-10-15T07:32:32.768Z,96.19
2022-10-15T07:33:32.769Z,96.18
2022-10-15T07:34:32.756Z,96.18
2022-10-15T07:35:32.770Z,96.18
2022-10-15T07:36:32.770Z,96.18
2022-10-15T07:37:32.757Z,96.19
2022-10-15T07:38:32.758Z,96.18
2022-10-15T07:39:32.772Z,96.18
2022-10-15T07:40:32.771Z,96.18
2022-10-15T07:41:32.759Z,96.18
2022-10-15T07:42:32.760Z,96.18
2022-10-15T07:43:32.772Z,96.19
2022-10-15T07:44:32.772Z,96.19
2022-10-15T07:45:32.760Z,96.19
2022-10-15T07:46:32.774Z,96.19
2022-10-15T07:47:32.774Z,96.19
2022-10-15T07:48:32.774Z,96.19
2022-10-15T07:49:32.762Z,96.19
2022-10-15T07:50:32.775Z,96.2
2022-10-15T07:51:32.775Z,96.19
2022-10-15T07:52:32.776Z,96.19
2022-10-15T07:53:32.763Z,96.2
2022-10-15T07:54:32.778Z,96.2
2022-10-15T07:55:32.776Z,96.2
2022-10-15T07:56:32.764Z,96.2
2022-10-15T07:57:32.764Z,96.2
2022-10-15T07:58:32.777Z,96.2
2022-10-15T07:59:32.778Z,96.2
2022-10-15T08:00:32.765Z,96.21
2022-10-15T08:01:32.779Z,96.2
2022-10-15T08:02:32.779Z,96.2
2022-10-15T08:03:32.780Z,96.21
2022-10-15T08:04:32.766Z,96.21
2022-10-15T08:05:32.781Z,96.21
2022-10-15T08:06:32.824Z,96.2
2022-10-15T08:07:32.780Z,96.21
2022-10-15T08:08:32.768Z,96.2
2022-10-15T08:09:32.781Z,96.21
2022-10-15T08:10:32.782Z,96.21
2022-10-15T08:11:32.782Z,96.21
2022-10-15T08:12:32.769Z,96.21
2022-10-15T08:13:32.783Z,96.21
2022-10-15T08:14:32.784Z,96.21
2022-10-15T08:15:32.770Z,96.21
2022-10-15T08:16:32.771Z,96.22
2022-10-15T08:17:32.785Z,96.22
2022-10-15T08:18:32.809Z,96.21
2022-10-15T08:19:32.772Z,96.22
2022-10-15T08:20:32.786Z,96.22
2022-10-15T08:21:32.785Z,96.21
2022-10-15T08:22:32.786Z,96.22
2022-10-15T08:23:32.773Z,96.22
2022-10-15T08:24:32.787Z,96.22
2022-10-15T08:25:32.786Z,96.22
2022-10-15T08:26:32.788Z,96.22
2022-10-15T08:27:32.774Z,96.22
2022-10-15T08:28:32.789Z,96.23
2022-10-15T08:29:32.789Z,96.23
2022-10-15T08:30:32.775Z,96.23
2022-10-15T08:31:32.776Z,96.23
2022-10-15T08:32:32.790Z,96.23
2022-10-15T08:33:32.790Z,96.24
2022-10-15T08:34:32.777Z,96.24
2022-10-15T08:35:32.777Z,96.24
2022-10-15T08:36:32.790Z,96.24
2022-10-15T08:37:32.793Z,96.24
2022-10-15T08:38:32.779Z,96.24
2022-10-15T08:39:32.792Z,96.24
2022-10-15T08:40:32.793Z,96.24
2022-10-15T08:41:32.792Z,96.24
2022-10-15T08:42:32.780Z,96.24
2022-10-15T08:43:32.794Z,96.24
2022-10-15T08:44:32.793Z,96.24
2022-10-15T08:45:32.793Z,96.25
2022-10-15T08:46:32.781Z,96.25
2022-10-15T08:47:32.794Z,96.25
2022-10-15T08:48:32.795Z,96.24
2022-10-15T08:49:32.782Z,96.25
2022-10-15T08:50:32.783Z,96.25
2022-10-15T08:51:32.796Z,96.25
2022-10-15T08:52:32.797Z,96.25
2022-10-15T08:53:32.784Z,96.25
2022-10-15T08:54:32.784Z,96.25
2022-10-15T08:55:32.798Z,96.25
2022-10-15T08:56:32.798Z,96.25
2022-10-15T08:57:32.785Z,96.25
2022-10-15T08:59:32.799Z,96.25
2022-10-15T09:00:32.799Z,96.25
2022-10-15T09:01:32.786Z,96.25
2022-10-15T09:02:32.801Z,96.25
2022-10-15T09:03:32.801Z,96.25
2022-10-15T09:04:32.800Z,96.25
2022-10-15T09:05:32.788Z,96.25
2022-10-15T09:06:32.802Z,96.25
2022-10-15T09:07:32.802Z,96.25
2022-10-15T09:08:32.804Z,96.25
2022-10-15T09:09:32.790Z,96.25
2022-10-15T09:10:32.803Z,96.25
2022-10-15T09:11:32.804Z,96.25
2022-10-15T09:12:32.790Z,96.25
2022-10-15T09:13:32.791Z,96.26
2022-10-15T09:14:32.805Z,96.25
2022-10-15T09:15:32.804Z,96.25
2022-10-15T09:16:32.792Z,96.25
2022-10-15T09:17:32.806Z,96.26
2022-10-15T09:18:32.806Z,96.26
2022-10-15T09:19:32.807Z,96.25
2022-10-15T09:20:32.793Z,96.26
2022-10-15T09:21:32.807Z,96.26
2022-10-15T09:22:32.807Z,96.26
2022-10-15T09:23:32.807Z,96.26
2022-10-15T09:24:32.795Z,96.26
2022-10-15T09:25:32.809Z,96.26
2022-10-15T09:26:32.809Z,96.26
2022-10-15T09:27:32.796Z,96.26
2022-10-15T09:28:32.796Z,96.26
2022-10-15T09:29:32.810Z,96.26
2022-10-15T09:30:32.810Z,96.26
2022-10-15T09:31:32.797Z,96.26
2022-10-15T09:32:32.798Z,96.27
2022-10-15T09:33:32.812Z,96.27
2022-10-15T09:34:32.811Z,96.27
2022-10-15T09:35:32.799Z,96.27
2022-10-15T09:36:32.813Z,96.27
2022-10-15T09:37:32.813Z,96.27
2022-10-15T09:38:32.813Z,96.27
2022-10-15T09:39:32.800Z,96.28
2022-10-15T09:40:32.813Z,96.28
2022-10-15T09:41:32.816Z,96.27
2022-10-15T09:42:32.814Z,96.28
2022-10-15T09:43:32.802Z,96.28
2022-10-15T09:44:32.816Z,96.28
2022-10-15T09:45:32.816Z,96.28
2022-10-15T09:46:32.803Z,96.28
2022-10-15T09:47:32.804Z,96.28
2022-10-15T09:48:32.816Z,96.28
2022-10-15T09:49:32.818Z,96.28
2022-10-15T09:50:32.804Z,96.28
2022-10-15T09:51:32.819Z,96.29
2022-10-15T09:52:32.819Z,96.28
2022-10-15T09:53:32.818Z,96.29
2022-10-15T09:54:32.806Z,96.29
2022-10-15T09:55:32.820Z,96.29
2022-10-15T09:56:32.847Z,96.28
2022-10-15T09:57:32.821Z,96.29
2022-10-15T09:58:32.807Z,96.29
2022-10-15T09:59:32.821Z,96.29
2022-10-15T10:00:32.822Z,96.29
2022-10-15T10:01:32.821Z,96.29
2022-10-15T10:02:32.809Z,96.29
2022-10-15T10:03:32.823Z,96.29
2022-10-15T10:04:32.822Z,96.29
2022-10-15T10:05:32.810Z,96.29
2022-10-15T10:06:32.810Z,96.29
2022-10-15T10:07:32.824Z,96.29
2022-10-15T10:08:32.825Z,96.29
2022-10-15T10:09:32.811Z,96.29
2022-10-15T10:10:32.826Z,96.29
2022-10-15T10:11:32.826Z,96.3
2022-10-15T10:12:32.826Z,96.29
2022-10-15T10:13:32.813Z,96.3
2022-10-15T10:14:32.827Z,96.3
2022-10-15T10:15:32.827Z,96.3
2022-10-15T10:16:32.827Z,96.3
2022-10-15T10:17:32.814Z,96.3
2022-10-15T10:18:32.827Z,96.31
2022-10-15T10:19:32.828Z,96.31
2022-10-15T10:20:32.829Z,96.31
2022-10-15T10:21:32.816Z,96.31
2022-10-15T10:22:32.830Z,96.31
2022-10-15T10:23:32.830Z,96.31
2022-10-15T10:24:32.817Z,96.31
2022-10-15T10:25:32.817Z,96.3
2022-10-15T10:26:32.831Z,96.31
2022-10-15T10:27:32.832Z,96.31
2022-10-15T10:28:32.818Z,96.3
2022-10-15T10:29:32.832Z,96.31
2022-10-15T10:30:32.832Z,96.31
2022-10-15T10:31:32.832Z,96.31
2022-10-15T10:32:32.820Z,96.31
2022-10-15T10:33:32.833Z,96.3
2022-10-15T10:34:32.835Z,96.31
2022-10-15T10:35:32.834Z,96.31
2022-10-15T10:36:32.821Z,96.31
2022-10-15T10:37:32.835Z,96.31
2022-10-15T10:38:32.837Z,96.31
2022-10-15T10:39:32.837Z,96.31
2022-10-15T10:40:32.823Z,96.31
2022-10-15T10:41:32.837Z,96.31
2022-10-15T10:42:32.837Z,96.31
2022-10-15T10:43:32.824Z,96.31
2022-10-15T10:44:32.824Z,96.31
2022-10-15T10:45:32.838Z,96.31
2022-10-15T10:46:32.838Z,96.31
2022-10-15T10:47:32.825Z,96.31
2022-10-15T10:48:32.838Z,96.31
2022-10-15T10:49:32.840Z,96.31
2022-10-15T10:50:32.840Z,96.31
2022-10-15T10:51:32.827Z,96.31
2022-10-15T10:52:32.841Z,96.31
2022-10-15T10:53:32.842Z,96.31
2022-10-15T10:54:32.841Z,96.31
2022-10-15T10:55:32.829Z,96.31
2022-10-15T10:56:32.841Z,96.31
2022-10-15T10:57:32.843Z,96.31
2022-10-15T10:58:32.829Z,96.31
2022-10-15T10:59:32.830Z,96.31
2022-10-15T11:00:32.844Z,96.31
2022-10-15T11:01:32.843Z,96.31
2022-10-15T11:02:32.831Z,96.31
2022-10-15T11:03:32.832Z,96.31
2022-10-15T11:04:32.844Z,96.31
2022-10-15T11:05:32.846Z,96.32
2022-10-15T11:06:32.832Z,96.31
2022-10-15T11:07:32.846Z,96.32
2022-10-15T11:08:32.846Z,96.31
2022-10-15T11:09:32.846Z,96.32
2022-10-15T11:10:32.834Z,96.32
2022-10-15T11:11:32.848Z,96.32
2022-10-15T11:12:32.848Z,96.32
2022-10-15T11:13:32.847Z,96.32
2022-10-15T11:14:32.835Z,96.32
2022-10-15T11:15:32.849Z,96.32
2022-10-15T11:16:32.848Z,96.32
2022-10-15T11:17:32.836Z,96.32
2022-10-15T11:18:32.837Z,96.33
2022-10-15T11:19:32.851Z,96.32
2022-10-15T11:20:32.852Z,96.33
2022-10-15T11:21:32.838Z,96.32
2022-10-15T11:22:32.839Z,96.33
2022-10-15T11:23:32.852Z,96.32
2022-10-15T11:24:32.852Z,96.33
2022-10-15T11:25:32.839Z,96.33
2022-10-15T11:26:32.853Z,96.33
2022-10-15T11:27:32.853Z,96.33
2022-10-15T11:28:32.854Z,96.32
2022-10-15T11:29:32.841Z,96.33
2022-10-15T11:30:32.855Z,96.33
2022-10-15T11:31:32.856Z,96.33
2022-10-15T11:32:32.855Z,96.32
2022-10-15T11:33:32.842Z,96.33
2022-10-15T11:34:32.856Z,96.33
2022-10-15T11:35:32.856Z,96.33
2022-10-15T11:36:32.843Z,96.33
2022-10-15T11:37:32.844Z,96.33
2022-10-15T11:38:32.857Z,96.33
2022-10-15T11:39:32.858Z,96.32
2022-10-15T11:40:32.844Z,96.32
2022-10-15T11:41:32.859Z,96.33
2022-10-15T11:42:32.858Z,96.32
2022-10-15T11:43:32.858Z,96.33
2022-10-15T11:44:32.846Z,96.33
2022-10-15T11:45:32.860Z,96.33
2022-10-15T11:46:32.912Z,96.33
2022-10-15T11:47:32.861Z,96.32
2022-10-15T11:48:32.848Z,96.32
2022-10-15T11:49:32.861Z,96.32
2022-10-15T11:50:32.862Z,96.32
2022-10-15T11:51:32.862Z,96.32
2022-10-15T11:52:32.849Z,96.31
2022-10-15T11:53:32.863Z,96.31
2022-10-15T11:54:32.862Z,96.32
2022-10-15T11:55:32.850Z,96.31
2022-10-15T11:56:32.851Z,96.31
2022-10-15T11:57:32.864Z,96.31
2022-10-15T11:58:32.927Z,96.31
2022-10-15T11:59:32.851Z,96.31
2022-10-15T12:00:32.865Z,96.32
2022-10-15T12:01:32.865Z,96.32
2022-10-15T12:02:32.866Z,96.31
2022-10-15T12:03:32.853Z,96.31
2022-10-15T12:04:32.867Z,96.31
2022-10-15T12:05:32.868Z,96.3
2022-10-15T12:06:32.867Z,96.3
2022-10-15T12:07:32.854Z,96.29
2022-10-15T12:08:32.868Z,96.29
2022-10-15T12:09:32.869Z,96.28
2022-10-15T12:10:32.855Z,96.29
2022-10-15T12:11:32.856Z,96.28
2022-10-15T12:12:32.870Z,96.28
2022-10-15T12:13:32.871Z,96.27
2022-10-15T12:14:32.857Z,96.27
2022-10-15T12:15:32.858Z,96.27
2022-10-15T12:16:32.871Z,96.28
2022-10-15T12:17:32.936Z,96.28
2022-10-15T12:18:32.858Z,96.27
2022-10-15T12:19:32.872Z,96.25
2022-10-15T12:20:32.873Z,96.25
2022-10-15T12:21:32.873Z,96.26
2022-10-15T12:22:32.860Z,96.26
2022-10-15T12:23:32.874Z,96.26
2022-10-15T12:24:32.875Z,96.26
2022-10-15T12:25:32.874Z,96.26
2022-10-15T12:26:32.862Z,96.26
2022-10-15T12:27:32.876Z,96.25
2022-10-15T12:28:32.876Z,96.25
2022-10-15T12:29:32.887Z,96.25
2022-10-15T12:30:32.865Z,96.25
2022-10-15T12:31:32.878Z,96.25
2022-10-15T12:32:32.877Z,96.25
2022-10-15T12:33:32.865Z,96.26
2022-10-15T12:34:32.867Z,96.25
2022-10-15T12:35:32.880Z,96.25
2022-10-15T12:36:32.879Z,96.26
2022-10-15T12:37:32.867Z,96.26
2022-10-15T12:38:32.881Z,96.26
2022-10-15T12:39:32.881Z,96.26
2022-10-15T12:40:32.882Z,96.26
2022-10-15T12:41:32.881Z,96.26
2022-10-15T12:42:32.883Z,96.26
2022-10-15T12:43:32.884Z,96.27
2022-10-15T12:44:32.884Z,96.27
2022-10-15T12:45:32.871Z,96.27
2022-10-15T12:46:32.885Z,96.26
2022-10-15T12:47:32.885Z,96.26
2022-10-15T12:48:32.872Z,96.26
2022-10-15T12:49:32.874Z,96.25
2022-10-15T12:50:32.887Z,96.24
2022-10-15T12:51:32.886Z,96.24
2022-10-15T12:52:32.874Z,96.24
2022-10-15T12:53:32.938Z,96.24
2022-10-15T12:54:32.889Z,96.24
2022-10-15T12:55:32.888Z,96.25
2022-10-15T12:56:32.876Z,96.25
2022-10-15T12:57:32.890Z,96.25